Time;durP1;ratioP1;P1;durP2;ratioP2;P2;SDS_P1;SDS_P2;PMS_P1;PMS_P2;Temp;Humidity;BMP_temperature;BMP_pressure;BME280_temperature;BME280_humidity;BME280_pressure;Samples;Min_cycle;Max_cycle;Signal;HPM_P1;HPM_P2
2022/10/13 00:00:45;;;;;;;;;;;10.10;99.90;;;;;;5017504;28;20397;-66
2022/10/13 00:03:12;;;;;;;;;;;10.00;99.90;;;;;;5016131;28;19956;-66
2022/10/13 00:05:43;;;;;;;;;;;10.00;99.90;;;;;;5017762;28;19943;-65
2022/10/13 00:08:10;;;;;;;;;;;10.00;99.90;;;;;;5019753;28;20411;-66
2022/10/13 00:10:44;;;;;;;;;;;10.00;99.90;;;;;;5026990;28;20011;-66
2022/10/13 00:13:11;;;;;;;;;;;10.00;99.90;;;;;;5023940;28;19955;-66
2022/10/13 00:15:39;;;;;;;;;;;10.00;99.90;;;;;;5017670;28;20361;-66
2022/10/13 00:18:06;;;;;;;;;;;10.00;99.90;;;;;;5018396;28;19932;-67
2022/10/13 00:20:33;;;;;;;;;;;10.00;99.90;;;;;;5013793;28;20019;-66
2022/10/13 00:23:00;;;;;;;;;;;10.00;99.90;;;;;;5017124;28;20015;-65
2022/10/13 00:25:27;;;;;;;;;;;9.90;99.90;;;;;;5016464;28;19929;-66
2022/10/13 00:27:53;;;;;;;;;;;9.90;99.90;;;;;;5007302;28;20102;-68
2022/10/13 00:30:26;;;;;;;;;;;10.00;99.90;;;;;;5014406;28;19926;-66
2022/10/13 00:32:52;;;;;;;;;;;9.90;99.90;;;;;;5010215;28;20003;-66
2022/10/13 00:35:19;;;;;;;;;;;10.00;99.90;;;;;;5014228;28;20421;-66
2022/10/13 00:37:46;;;;;;;;;;;9.90;99.90;;;;;;5013212;28;19926;-66
2022/10/13 00:40:12;;;;;;;;;;;10.00;99.90;;;;;;5018933;28;19926;-65
2022/10/13 00:42:40;;;;;;;;;;;9.90;99.90;;;;;;5012443;28;19936;-65
2022/10/13 00:45:12;;;;;;;;;;;9.90;99.90;;;;;;5010781;28;19940;-65
2022/10/13 00:47:41;;;;;;;;;;;9.90;99.90;;;;;;5013566;28;19929;-65
2022/10/13 00:50:12;;;;;;;;;;;9.90;99.90;;;;;;5009453;28;20355;-66
2022/10/13 00:52:40;;;;;;;;;;;9.90;99.90;;;;;;5007683;28;20016;-66
2022/10/13 00:55:08;;;;;;;;;;;9.90;99.90;;;;;;5009906;28;20286;-65
2022/10/13 00:57:37;;;;;;;;;;;10.00;99.90;;;;;;5013896;28;19932;-66
2022/10/13 01:00:04;;;;;;;;;;;9.90;99.90;;;;;;5015782;28;20311;-65
2022/10/13 01:02:33;;;;;;;;;;;9.90;99.90;;;;;;5011725;28;19926;-67
2022/10/13 01:05:02;;;;;;;;;;;9.90;99.90;;;;;;5013919;28;19936;-65
2022/10/13 01:07:29;;;;;;;;;;;9.90;99.90;;;;;;5017952;28;19940;-66
2022/10/13 01:09:59;;;;;;;;;;;9.90;99.90;;;;;;5009671;28;19929;-67
2022/10/13 01:12:26;;;;;;;;;;;9.90;99.90;;;;;;5018162;28;19925;-68
2022/10/13 01:14:56;;;;;;;;;;;9.90;99.90;;;;;;5010919;28;19936;-66
2022/10/13 01:17:22;;;;;;;;;;;9.90;99.90;;;;;;5014681;28;20427;-65
2022/10/13 01:20:08;;;;;;;;;;;9.90;99.90;;;;;;5011733;28;20002;-65
2022/10/13 01:22:37;;;;;;;;;;;9.90;99.90;;;;;;5013790;28;20561;-66
2022/10/13 01:25:30;;;;;;;;;;;9.90;99.90;;;;;;5020023;28;20383;-66
2022/10/13 01:28:20;;;;;;;;;;;9.90;99.90;;;;;;5017793;28;19936;-67
2022/10/13 01:31:07;;;;;;;;;;;9.90;99.90;;;;;;5011653;28;19936;-66
2022/10/13 01:33:34;;;;;;;;;;;9.90;99.90;;;;;;5013426;28;19929;-66
2022/10/13 01:36:07;;;;;;;;;;;9.90;99.90;;;;;;5014452;28;19929;-65
2022/10/13 01:38:38;;;;;;;;;;;9.90;99.90;;;;;;5012544;28;19958;-66
2022/10/13 01:41:23;;;;;;;;;;;9.80;99.90;;;;;;5013832;28;19956;-65
2022/10/13 01:44:07;;;;;;;;;;;9.90;99.90;;;;;;5013217;28;20418;-66
2022/10/13 01:46:36;;;;;;;;;;;9.90;99.90;;;;;;5022595;28;20448;-65
2022/10/13 01:49:09;;;;;;;;;;;9.90;99.90;;;;;;5019864;28;19952;-65
2022/10/13 01:51:36;;;;;;;;;;;9.90;99.90;;;;;;5013549;28;20067;-66
2022/10/13 01:54:03;;;;;;;;;;;9.90;99.90;;;;;;5019191;28;20293;-66
2022/10/13 01:56:30;;;;;;;;;;;9.90;99.90;;;;;;5015912;28;19933;-66
2022/10/13 01:58:58;;;;;;;;;;;9.90;99.90;;;;;;5027681;28;20342;-67
2022/10/13 02:01:31;;;;;;;;;;;9.80;99.90;;;;;;5026625;28;19928;-67
2022/10/13 02:04:16;;;;;;;;;;;9.90;99.90;;;;;;5023332;28;20405;-65
2022/10/13 02:06:46;;;;;;;;;;;9.90;99.90;;;;;;5024125;28;19940;-65
2022/10/13 02:09:17;;;;;;;;;;;9.90;99.90;;;;;;5012289;28;20287;-65
2022/10/13 02:11:53;;;;;;;;;;;9.90;99.90;;;;;;5020265;28;20453;-66
2022/10/13 02:14:22;;;;;;;;;;;9.90;99.90;;;;;;5024257;28;19939;-66
2022/10/13 02:16:50;;;;;;;;;;;9.90;99.90;;;;;;5022087;28;20375;-66
2022/10/13 02:19:17;;;;;;;;;;;9.90;99.90;;;;;;5018544;28;20472;-67
2022/10/13 02:21:45;;;;;;;;;;;9.90;99.90;;;;;;5014043;28;20027;-67
2022/10/13 02:24:12;;;;;;;;;;;9.90;99.90;;;;;;5023758;28;19931;-66
2022/10/13 02:26:40;;;;;;;;;;;9.90;99.90;;;;;;5025103;28;19929;-65
2022/10/13 02:29:11;;;;;;;;;;;10.00;99.90;;;;;;5013603;28;19940;-65
2022/10/13 02:31:38;;;;;;;;;;;9.90;99.90;;;;;;5013266;28;19925;-67
2022/10/13 02:34:04;;;;;;;;;;;9.90;99.90;;;;;;5013937;28;19929;-66
2022/10/13 02:36:31;;;;;;;;;;;9.90;99.90;;;;;;5009312;28;19963;-66
2022/10/13 02:38:58;;;;;;;;;;;9.90;99.90;;;;;;5013768;28;19932;-65
2022/10/13 02:41:25;;;;;;;;;;;9.90;99.90;;;;;;5011941;28;20011;-66
2022/10/13 02:43:52;;;;;;;;;;;9.90;99.90;;;;;;5015389;28;20570;-65
2022/10/13 02:46:22;;;;;;;;;;;9.90;99.90;;;;;;5013006;28;20260;-66
2022/10/13 02:48:48;;;;;;;;;;;9.80;99.90;;;;;;5018767;28;20431;-66
2022/10/13 02:51:15;;;;;;;;;;;9.90;99.90;;;;;;5016541;28;20353;-65
2022/10/13 02:53:42;;;;;;;;;;;9.90;99.90;;;;;;5016849;28;20278;-65
2022/10/13 02:56:09;;;;;;;;;;;9.90;99.90;;;;;;5015022;28;19930;-66
2022/10/13 02:58:35;;;;;;;;;;;9.90;99.90;;;;;;5019705;28;19933;-65
2022/10/13 03:01:06;;;;;;;;;;;9.90;99.90;;;;;;5013502;28;19956;-66
2022/10/13 03:03:33;;;;;;;;;;;9.90;99.90;;;;;;5023050;28;19933;-66
2022/10/13 03:05:59;;;;;;;;;;;9.90;99.90;;;;;;5021596;28;19933;-65
2022/10/13 03:08:27;;;;;;;;;;;9.90;99.90;;;;;;5019620;28;19929;-65
2022/10/13 03:10:54;;;;;;;;;;;9.80;99.90;;;;;;5029952;28;19940;-65
2022/10/13 03:13:21;;;;;;;;;;;9.80;99.90;;;;;;5022326;28;19929;-66
2022/10/13 03:15:47;;;;;;;;;;;9.80;99.90;;;;;;5021937;28;19933;-65
2022/10/13 03:18:14;;;;;;;;;;;9.80;99.90;;;;;;5024359;28;19943;-66
2022/10/13 03:20:41;;;;;;;;;;;9.80;99.90;;;;;;5020838;28;19972;-67
2022/10/13 03:23:08;;;;;;;;;;;9.70;99.90;;;;;;5013143;28;19932;-66
2022/10/13 03:25:35;;;;;;;;;;;9.70;99.90;;;;;;5016983;28;19947;-67
2022/10/13 03:28:02;;;;;;;;;;;9.70;99.90;;;;;;5013176;28;19932;-66
2022/10/13 03:30:29;;;;;;;;;;;9.80;99.90;;;;;;5019413;28;19947;-66
2022/10/13 03:32:56;;;;;;;;;;;9.80;99.90;;;;;;5018545;28;19952;-68
2022/10/13 03:35:23;;;;;;;;;;;9.80;99.90;;;;;;5021459;28;20608;-66
2022/10/13 03:37:50;;;;;;;;;;;9.70;99.90;;;;;;5018636;28;20038;-66
2022/10/13 03:40:16;;;;;;;;;;;9.70;99.90;;;;;;5019225;28;20579;-66
2022/10/13 03:42:43;;;;;;;;;;;9.70;99.90;;;;;;5022318;28;19993;-66
2022/10/13 03:45:10;;;;;;;;;;;9.70;99.90;;;;;;5014073;28;20268;-66
2022/10/13 03:47:37;;;;;;;;;;;9.70;99.90;;;;;;5024816;28;20656;-67
2022/10/13 03:50:04;;;;;;;;;;;9.70;99.90;;;;;;5024956;28;19929;-66
2022/10/13 03:52:31;;;;;;;;;;;9.70;99.90;;;;;;5020155;28;19936;-66
2022/10/13 03:54:58;;;;;;;;;;;9.70;99.90;;;;;;5011225;28;20024;-68
2022/10/13 03:57:24;;;;;;;;;;;9.60;99.90;;;;;;5017702;28;20027;-66
2022/10/13 03:59:51;;;;;;;;;;;9.70;99.90;;;;;;5026597;28;19925;-66
2022/10/13 04:02:18;;;;;;;;;;;9.60;99.90;;;;;;5020399;28;19964;-68
2022/10/13 04:04:47;;;;;;;;;;;9.60;99.90;;;;;;5026345;28;19936;-64
2022/10/13 04:07:14;;;;;;;;;;;9.60;99.90;;;;;;5022475;28;19933;-65
2022/10/13 04:09:41;;;;;;;;;;;9.60;99.90;;;;;;5014856;28;19934;-67
2022/10/13 04:12:07;;;;;;;;;;;9.60;99.90;;;;;;5015897;28;20009;-65
2022/10/13 04:14:34;;;;;;;;;;;9.60;99.90;;;;;;5015402;28;19935;-66
2022/10/13 04:17:06;;;;;;;;;;;9.60;99.90;;;;;;5021151;28;20029;-66
2022/10/13 04:19:33;;;;;;;;;;;9.60;99.90;;;;;;5022642;28;19929;-67
2022/10/13 04:22:04;;;;;;;;;;;9.60;99.90;;;;;;5016274;28;19929;-66
2022/10/13 04:24:30;;;;;;;;;;;9.60;99.90;;;;;;5016384;28;20036;-66
2022/10/13 04:26:57;;;;;;;;;;;9.60;99.90;;;;;;5020389;28;19940;-66
2022/10/13 04:29:24;;;;;;;;;;;9.60;99.90;;;;;;5028671;28;19929;-67
2022/10/13 04:31:52;;;;;;;;;;;9.60;99.90;;;;;;5014072;28;19925;-65
2022/10/13 04:34:19;;;;;;;;;;;9.60;99.90;;;;;;5019822;28;20310;-68
2022/10/13 04:36:48;;;;;;;;;;;9.60;99.90;;;;;;5020182;28;19931;-67
2022/10/13 04:39:15;;;;;;;;;;;9.60;99.90;;;;;;5020554;28;20382;-66
2022/10/13 04:41:43;;;;;;;;;;;9.60;99.90;;;;;;5017009;28;19937;-66
2022/10/13 04:44:09;;;;;;;;;;;9.60;99.90;;;;;;5024387;28;20394;-66
2022/10/13 04:46:36;;;;;;;;;;;9.60;99.90;;;;;;5032991;28;19928;-66
2022/10/13 04:49:03;;;;;;;;;;;9.70;99.90;;;;;;5010085;28;20379;-68
2022/10/13 04:51:31;;;;;;;;;;;9.70;99.90;;;;;;5022330;28;20038;-66
2022/10/13 04:53:59;;;;;;;;;;;9.70;99.90;;;;;;5017224;28;19925;-67
2022/10/13 04:56:27;;;;;;;;;;;9.70;99.90;;;;;;5024058;28;19979;-66
2022/10/13 04:58:58;;;;;;;;;;;9.70;99.90;;;;;;5015465;28;19932;-68
2022/10/13 05:01:25;;;;;;;;;;;9.70;99.90;;;;;;5015608;28;19933;-65
2022/10/13 05:03:53;;;;;;;;;;;9.70;99.90;;;;;;5015751;28;20379;-66
2022/10/13 05:06:22;;;;;;;;;;;9.70;99.90;;;;;;5017683;28;19933;-68
2022/10/13 05:08:54;;;;;;;;;;;9.70;99.90;;;;;;5016926;28;20264;-67
2022/10/13 05:11:23;;;;;;;;;;;9.70;99.90;;;;;;5017369;28;20016;-66
2022/10/13 05:13:49;;;;;;;;;;;9.70;99.90;;;;;;5019884;28;19929;-66
2022/10/13 05:16:17;;;;;;;;;;;9.70;99.90;;;;;;5017366;28;19933;-66
2022/10/13 05:18:44;;;;;;;;;;;9.80;99.90;;;;;;5021239;28;19935;-66
2022/10/13 05:21:12;;;;;;;;;;;9.80;99.90;;;;;;5014777;28;19929;-69
2022/10/13 05:23:40;;;;;;;;;;;9.70;99.90;;;;;;5012927;28;20308;-66
2022/10/13 05:26:08;;;;;;;;;;;9.70;99.90;;;;;;5016455;28;20324;-66
2022/10/13 05:28:36;;;;;;;;;;;9.70;99.90;;;;;;5016328;28;19929;-67
2022/10/13 05:31:10;;;;;;;;;;;9.80;99.90;;;;;;5014172;28;19976;-65
2022/10/13 05:33:36;;;;;;;;;;;9.70;99.90;;;;;;5025858;28;19936;-65
2022/10/13 05:36:07;;;;;;;;;;;9.80;99.90;;;;;;5025063;28;19936;-67
2022/10/13 05:38:36;;;;;;;;;;;9.70;99.90;;;;;;5021660;28;20014;-65
2022/10/13 05:41:07;;;;;;;;;;;9.80;99.90;;;;;;5024141;28;19925;-66
2022/10/13 05:43:35;;;;;;;;;;;9.80;99.90;;;;;;5028428;28;19932;-68
2022/10/13 05:46:02;;;;;;;;;;;9.80;99.90;;;;;;5024301;28;19943;-66
2022/10/13 05:48:29;;;;;;;;;;;9.80;99.90;;;;;;5018623;28;19936;-66
2022/10/13 05:50:58;;;;;;;;;;;9.80;99.90;;;;;;5012870;28;20319;-66
2022/10/13 05:53:27;;;;;;;;;;;9.80;99.90;;;;;;5021288;28;20001;-66
2022/10/13 05:55:55;;;;;;;;;;;9.90;99.90;;;;;;5026439;28;20243;-68
2022/10/13 05:58:22;;;;;;;;;;;9.90;99.90;;;;;;5022192;28;19949;-68
2022/10/13 06:00:49;;;;;;;;;;;9.90;99.90;;;;;;5014990;28;19935;-66
2022/10/13 06:03:17;;;;;;;;;;;9.90;99.90;;;;;;5026548;28;19929;-67
2022/10/13 06:05:46;;;;;;;;;;;9.90;99.90;;;;;;5027829;28;19976;-66
2022/10/13 06:08:13;;;;;;;;;;;10.00;99.90;;;;;;5024048;28;20426;-65
2022/10/13 06:10:42;;;;;;;;;;;10.00;99.90;;;;;;5023636;28;19932;-66
2022/10/13 06:13:09;;;;;;;;;;;10.00;99.90;;;;;;5032611;28;20227;-66
2022/10/13 06:15:35;;;;;;;;;;;10.10;99.90;;;;;;5016263;28;19940;-67
2022/10/13 06:18:06;;;;;;;;;;;10.10;99.90;;;;;;5021429;28;19935;-67
2022/10/13 06:20:32;;;;;;;;;;;10.10;99.90;;;;;;5027609;28;19931;-65
2022/10/13 06:22:59;;;;;;;;;;;10.20;99.90;;;;;;5020993;28;20206;-66
2022/10/13 06:25:27;;;;;;;;;;;10.20;99.90;;;;;;5021280;28;19952;-66
2022/10/13 06:27:59;;;;;;;;;;;10.20;99.90;;;;;;5023958;28;20441;-66
2022/10/13 06:30:26;;;;;;;;;;;10.30;99.90;;;;;;5019440;28;19961;-67
2022/10/13 06:32:57;;;;;;;;;;;10.30;99.90;;;;;;5030838;28;19925;-68
2022/10/13 06:35:23;;;;;;;;;;;10.30;99.90;;;;;;5026085;28;20023;-66
2022/10/13 06:37:52;;;;;;;;;;;10.40;99.90;;;;;;5020828;28;20640;-66
2022/10/13 06:40:18;;;;;;;;;;;10.40;99.90;;;;;;5030173;28;20003;-66
2022/10/13 06:42:49;;;;;;;;;;;10.40;99.90;;;;;;5019266;28;19925;-66
2022/10/13 06:45:16;;;;;;;;;;;10.40;99.90;;;;;;5033779;28;19976;-66
2022/10/13 06:47:43;;;;;;;;;;;10.40;99.90;;;;;;5021359;28;20274;-66
2022/10/13 06:50:10;;;;;;;;;;;10.50;99.90;;;;;;5028795;28;19968;-66
2022/10/13 06:52:37;;;;;;;;;;;10.50;99.90;;;;;;5021174;28;19933;-68
2022/10/13 06:55:04;;;;;;;;;;;10.50;99.90;;;;;;5015007;28;20243;-66
2022/10/13 06:57:32;;;;;;;;;;;10.50;99.90;;;;;;5017985;28;19955;-66
2022/10/13 07:00:00;;;;;;;;;;;10.60;99.90;;;;;;5027125;28;20318;-68
2022/10/13 07:02:27;;;;;;;;;;;10.60;99.90;;;;;;5024099;28;19926;-66
2022/10/13 07:04:54;;;;;;;;;;;10.60;99.90;;;;;;5016294;28;19936;-67
2022/10/13 07:07:21;;;;;;;;;;;10.70;99.90;;;;;;5016493;28;19936;-67
2022/10/13 07:09:48;;;;;;;;;;;10.70;99.90;;;;;;5025066;28;20344;-66
2022/10/13 07:12:15;;;;;;;;;;;10.70;99.90;;;;;;5018310;28;19926;-66
2022/10/13 07:14:42;;;;;;;;;;;10.70;99.90;;;;;;5023173;28;19956;-67
2022/10/13 07:17:09;;;;;;;;;;;10.80;99.90;;;;;;5020956;28;20422;-66
2022/10/13 07:19:36;;;;;;;;;;;10.80;99.90;;;;;;5023285;28;19926;-66
2022/10/13 07:22:03;;;;;;;;;;;10.90;99.90;;;;;;5027997;28;20636;-67
2022/10/13 07:24:30;;;;;;;;;;;10.90;99.90;;;;;;5031933;28;20572;-67
2022/10/13 07:26:56;;;;;;;;;;;10.90;99.90;;;;;;5015808;28;19925;-66
2022/10/13 07:29:23;;;;;;;;;;;10.90;99.90;;;;;;5016975;28;19929;-67
2022/10/13 07:31:50;;;;;;;;;;;11.00;99.90;;;;;;5024557;28;19936;-66
2022/10/13 07:34:17;;;;;;;;;;;11.00;99.90;;;;;;5032682;28;19925;-66
2022/10/13 07:36:43;;;;;;;;;;;11.10;99.90;;;;;;5019142;28;19936;-67
2022/10/13 07:39:10;;;;;;;;;;;11.10;99.90;;;;;;5024969;28;20389;-66
2022/10/13 07:41:37;;;;;;;;;;;11.20;99.90;;;;;;5026236;28;19925;-67
2022/10/13 07:44:04;;;;;;;;;;;11.20;99.90;;;;;;5019825;28;19951;-66
2022/10/13 07:46:31;;;;;;;;;;;11.20;99.90;;;;;;5024828;28;20378;-66
2022/10/13 07:48:57;;;;;;;;;;;11.20;99.90;;;;;;5018354;28;20638;-66
2022/10/13 07:51:24;;;;;;;;;;;11.20;99.90;;;;;;5017267;28;20350;-66
2022/10/13 07:53:51;;;;;;;;;;;11.30;99.90;;;;;;5033127;28;21742;-66
2022/10/13 07:56:18;;;;;;;;;;;11.30;99.90;;;;;;5024476;28;19960;-66
2022/10/13 07:58:45;;;;;;;;;;;11.40;99.90;;;;;;5023249;28;20278;-66
2022/10/13 08:01:12;;;;;;;;;;;11.40;99.90;;;;;;5015069;28;19925;-66
2022/10/13 08:03:40;;;;;;;;;;;11.40;99.90;;;;;;5020212;28;20406;-66
2022/10/13 08:06:15;;;;;;;;;;;11.50;99.90;;;;;;5023318;28;20191;-68
2022/10/13 08:08:42;;;;;;;;;;;11.50;99.90;;;;;;5014895;28;20260;-66
2022/10/13 08:11:12;;;;;;;;;;;11.50;99.90;;;;;;5019126;28;20335;-67
2022/10/13 08:13:49;;;;;;;;;;;11.60;99.90;;;;;;5029782;28;20020;-68
2022/10/13 08:16:21;;;;;;;;;;;11.60;99.90;;;;;;5027477;28;19947;-66
2022/10/13 08:18:48;;;;;;;;;;;11.60;99.90;;;;;;5019518;28;19933;-68
2022/10/13 08:21:19;;;;;;;;;;;11.60;99.90;;;;;;5012614;28;19925;-66
2022/10/13 08:24:06;;;;;;;;;;;11.60;99.90;;;;;;5015295;28;19937;-66
2022/10/13 08:26:33;;;;;;;;;;;11.60;99.90;;;;;;5016577;28;19939;-66
2022/10/13 08:29:00;;;;;;;;;;;11.60;99.90;;;;;;5018809;28;19983;-66
2022/10/13 08:31:46;;;;;;;;;;;11.60;99.90;;;;;;5027400;28;19924;-66
2022/10/13 08:34:18;;;;;;;;;;;11.60;99.90;;;;;;5009120;28;20020;-66
2022/10/13 08:36:45;;;;;;;;;;;11.70;99.90;;;;;;5010510;28;20271;-68
2022/10/13 08:39:12;;;;;;;;;;;11.70;99.90;;;;;;5014113;28;19929;-66
2022/10/13 08:41:42;;;;;;;;;;;11.80;99.90;;;;;;5014176;28;20012;-67
2022/10/13 08:44:18;;;;;;;;;;;11.80;99.90;;;;;;5012742;28;19940;-66
2022/10/13 08:47:25;;;;;;;;;;;11.80;99.90;;;;;;5019072;28;19929;-66
2022/10/13 08:49:52;;;;;;;;;;;11.80;99.90;;;;;;5017220;28;19931;-67
2022/10/13 08:52:26;;;;;;;;;;;12.00;99.90;;;;;;5015618;28;20464;-66
2022/10/13 08:54:54;;;;;;;;;;;12.00;99.90;;;;;;5022643;28;19984;-66
2022/10/13 08:57:22;;;;;;;;;;;12.00;99.90;;;;;;5022385;28;19940;-66
2022/10/13 08:59:51;;;;;;;;;;;12.10;99.90;;;;;;5014410;28;19991;-67
2022/10/13 09:02:22;;;;;;;;;;;12.10;99.90;;;;;;5015340;28;19929;-66
2022/10/13 09:04:51;;;;;;;;;;;12.20;99.90;;;;;;5007815;28;20407;-67
2022/10/13 09:07:23;;;;;;;;;;;12.30;99.90;;;;;;5015284;28;19931;-66
2022/10/13 09:09:51;;;;;;;;;;;12.30;99.90;;;;;;5014089;28;20008;-66
2022/10/13 09:12:28;;;;;;;;;;;12.40;99.90;;;;;;5010558;28;19971;-66
2022/10/13 09:15:04;;;;;;;;;;;12.50;99.90;;;;;;5017361;28;19925;-68
2022/10/13 09:17:32;;;;;;;;;;;12.60;99.90;;;;;;5022495;28;20044;-66
2022/10/13 09:20:00;;;;;;;;;;;12.70;99.90;;;;;;5016970;28;19935;-68
2022/10/13 09:22:30;;;;;;;;;;;12.70;99.90;;;;;;5009557;28;19930;-67
2022/10/13 09:25:06;;;;;;;;;;;12.80;99.90;;;;;;5018689;28;19944;-66
2022/10/13 09:27:42;;;;;;;;;;;12.90;99.90;;;;;;5019652;28;19929;-66
2022/10/13 09:30:21;;;;;;;;;;;12.90;99.90;;;;;;5012181;28;20417;-66
2022/10/13 09:32:48;;;;;;;;;;;12.90;99.90;;;;;;5014675;28;19929;-66
2022/10/13 09:35:24;;;;;;;;;;;12.90;99.90;;;;;;5014717;28;19925;-66
2022/10/13 09:38:01;;;;;;;;;;;12.90;99.90;;;;;;5018394;28;19972;-67
2022/10/13 09:40:31;;;;;;;;;;;12.90;99.90;;;;;;5016353;28;19925;-67
2022/10/13 09:43:00;;;;;;;;;;;12.90;99.90;;;;;;5017636;28;19925;-68
2022/10/13 09:45:29;;;;;;;;;;;12.90;99.90;;;;;;5015421;28;20012;-67
2022/10/13 09:48:02;;;;;;;;;;;12.90;99.90;;;;;;5018721;28;19936;-66
2022/10/13 09:50:30;;;;;;;;;;;12.90;99.90;;;;;;5015901;28;19925;-66
2022/10/13 09:53:16;;;;;;;;;;;13.00;99.90;;;;;;5018649;28;19929;-67
2022/10/13 09:55:47;;;;;;;;;;;13.00;99.90;;;;;;5023436;28;20470;-67
2022/10/13 09:58:21;;;;;;;;;;;13.10;99.90;;;;;;5014525;28;20371;-67
2022/10/13 10:00:49;;;;;;;;;;;13.10;99.90;;;;;;5013742;28;20510;-66
2022/10/13 10:03:18;;;;;;;;;;;13.10;99.90;;;;;;5014300;28;19925;-67
2022/10/13 10:05:54;;;;;;;;;;;13.10;99.90;;;;;;5020552;28;19932;-66
2022/10/13 10:08:30;;;;;;;;;;;13.20;99.90;;;;;;5012802;28;19929;-67
2022/10/13 10:11:12;;;;;;;;;;;13.10;99.90;;;;;;5019626;28;20062;-66
2022/10/13 10:13:39;;;;;;;;;;;13.00;99.90;;;;;;5018788;28;19925;-66
2022/10/13 10:16:06;;;;;;;;;;;13.00;99.90;;;;;;5019412;28;20025;-66
2022/10/13 10:18:43;;;;;;;;;;;13.00;99.90;;;;;;5015198;28;20577;-66
2022/10/13 10:21:16;;;;;;;;;;;13.00;99.90;;;;;;5016074;28;19926;-66
2022/10/13 10:24:15;;;;;;;;;;;12.90;99.90;;;;;;5014137;28;20379;-66
2022/10/13 10:26:42;;;;;;;;;;;12.90;99.90;;;;;;5018515;28;19925;-66
2022/10/13 10:29:22;;;;;;;;;;;12.90;99.90;;;;;;5014211;28;19929;-67
2022/10/13 10:31:56;;;;;;;;;;;12.90;99.90;;;;;;5019580;28;19925;-67
2022/10/13 10:34:33;;;;;;;;;;;12.90;99.90;;;;;;5020958;28;19929;-66
2022/10/13 10:37:19;;;;;;;;;;;12.80;99.90;;;;;;5017592;28;20017;-67
2022/10/13 10:39:57;;;;;;;;;;;12.80;99.90;;;;;;5015430;28;19935;-65
2022/10/13 10:42:34;;;;;;;;;;;12.80;99.90;;;;;;5019768;28;19979;-66
2022/10/13 10:45:03;;;;;;;;;;;12.80;99.90;;;;;;5011130;28;20004;-66
2022/10/13 10:47:39;;;;;;;;;;;12.80;99.90;;;;;;5016546;28;19957;-67
2022/10/13 10:50:07;;;;;;;;;;;12.70;99.90;;;;;;5017600;28;19935;-67
2022/10/13 10:52:52;;;;;;;;;;;12.70;99.90;;;;;;5019062;28;19929;-66
2022/10/13 10:55:42;;;;;;;;;;;12.70;99.90;;;;;;5018098;28;19926;-66
2022/10/13 10:58:13;;;;;;;;;;;12.70;99.90;;;;;;5016193;28;19991;-66
2022/10/13 11:00:52;;;;;;;;;;;12.80;99.90;;;;;;5017059;28;19925;-65
2022/10/13 11:03:30;;;;;;;;;;;12.80;99.90;;;;;;5018369;28;19975;-66
2022/10/13 11:06:01;;;;;;;;;;;12.80;99.90;;;;;;5018470;28;19931;-69
2022/10/13 11:08:48;;;;;;;;;;;12.70;99.90;;;;;;5017303;28;19925;-66
2022/10/13 11:11:24;;;;;;;;;;;12.70;99.90;;;;;;5014314;28;20032;-69
2022/10/13 11:13:59;;;;;;;;;;;12.70;99.90;;;;;;5016031;28;20375;-69
2022/10/13 11:16:29;;;;;;;;;;;12.70;99.90;;;;;;5017936;28;19944;-66
2022/10/13 11:19:15;;;;;;;;;;;12.80;99.90;;;;;;5013998;28;19929;-66
2022/10/13 11:21:53;;;;;;;;;;;12.80;99.90;;;;;;5019710;28;20067;-66
2022/10/13 11:24:32;;;;;;;;;;;12.80;99.90;;;;;;5018622;28;19967;-67
2022/10/13 11:27:14;;;;;;;;;;;12.90;99.90;;;;;;5015022;28;19940;-69
2022/10/13 11:29:56;;;;;;;;;;;12.90;99.90;;;;;;5018091;28;19960;-69
2022/10/13 11:32:26;;;;;;;;;;;13.00;99.90;;;;;;5022418;28;19998;-66
2022/10/13 11:34:59;;;;;;;;;;;13.10;99.90;;;;;;5018232;28;20024;-67
2022/10/13 11:37:34;;;;;;;;;;;13.20;99.90;;;;;;5010512;28;20344;-68
2022/10/13 11:40:03;;;;;;;;;;;13.30;99.90;;;;;;5033812;28;20044;-66
2022/10/13 11:42:42;;;;;;;;;;;13.30;99.90;;;;;;5014311;28;20335;-66
2022/10/13 11:45:21;;;;;;;;;;;13.30;99.90;;;;;;5016673;28;20287;-66
2022/10/13 11:48:08;;;;;;;;;;;13.30;99.90;;;;;;5017658;28;20304;-64
2022/10/13 11:50:45;;;;;;;;;;;13.30;99.90;;;;;;5017705;28;19952;-65
2022/10/13 11:53:16;;;;;;;;;;;13.40;99.90;;;;;;5016918;28;19929;-66
2022/10/13 11:55:51;;;;;;;;;;;13.40;99.90;;;;;;5017312;28;20024;-65
2022/10/13 11:58:22;;;;;;;;;;;13.40;99.90;;;;;;5014308;28;19928;-65
2022/10/13 12:00:52;;;;;;;;;;;13.50;99.90;;;;;;5013076;28;19929;-64
2022/10/13 12:03:39;;;;;;;;;;;13.50;99.90;;;;;;5010186;28;19961;-64
2022/10/13 12:06:30;;;;;;;;;;;13.50;99.90;;;;;;5019726;28;20326;-64
2022/10/13 12:08:59;;;;;;;;;;;13.60;99.90;;;;;;5016521;28;20028;-65
2022/10/13 12:11:36;;;;;;;;;;;13.70;99.90;;;;;;5019933;28;20268;-65
2022/10/13 12:14:06;;;;;;;;;;;13.70;99.90;;;;;;5015546;28;20011;-67
2022/10/13 12:16:33;;;;;;;;;;;13.70;99.90;;;;;;5014070;28;20436;-65
2022/10/13 12:19:18;;;;;;;;;;;13.70;99.90;;;;;;5016105;28;20260;-65
2022/10/13 12:21:53;;;;;;;;;;;13.80;99.90;;;;;;5016297;28;19935;-66
2022/10/13 12:24:24;;;;;;;;;;;13.80;99.90;;;;;;5014762;28;20012;-66
2022/10/13 12:26:51;;;;;;;;;;;13.80;99.90;;;;;;5017473;28;19925;-65
2022/10/13 12:29:20;;;;;;;;;;;13.80;99.90;;;;;;5016862;28;19940;-65
2022/10/13 12:31:48;;;;;;;;;;;13.80;99.90;;;;;;5014801;28;20713;-65
2022/10/13 12:34:26;;;;;;;;;;;13.80;99.90;;;;;;5024665;28;20023;-66
2022/10/13 12:37:04;;;;;;;;;;;13.80;99.90;;;;;;5014009;28;20083;-65
2022/10/13 12:39:32;;;;;;;;;;;13.80;99.90;;;;;;5013388;28;19937;-65
2022/10/13 12:42:01;;;;;;;;;;;13.90;99.90;;;;;;5007192;28;20384;-65
2022/10/13 12:44:29;;;;;;;;;;;13.90;99.90;;;;;;5014753;28;20039;-65
2022/10/13 12:47:00;;;;;;;;;;;13.90;99.90;;;;;;5014706;28;19932;-68
2022/10/13 12:49:31;;;;;;;;;;;13.90;99.90;;;;;;5007685;28;19957;-65
2022/10/13 12:52:07;;;;;;;;;;;13.90;99.90;;;;;;5014248;28;20278;-66
2022/10/13 12:54:38;;;;;;;;;;;13.90;99.90;;;;;;5010262;28;19987;-66
2022/10/13 12:57:17;;;;;;;;;;;13.80;99.90;;;;;;5010847;28;20000;-65
2022/10/13 12:59:44;;;;;;;;;;;13.70;99.90;;;;;;5010775;28;20024;-66
2022/10/13 13:02:30;;;;;;;;;;;13.70;99.90;;;;;;5014460;28;20047;-65
2022/10/13 13:04:57;;;;;;;;;;;13.80;99.90;;;;;;5007240;28;20014;-66
2022/10/13 13:07:27;;;;;;;;;;;13.80;99.90;;;;;;5013097;28;20430;-66
2022/10/13 13:10:06;;;;;;;;;;;14.00;99.90;;;;;;5011485;28;19957;-67
2022/10/13 13:12:36;;;;;;;;;;;14.10;99.90;;;;;;5012822;28;19925;-66
2022/10/13 13:15:24;;;;;;;;;;;14.20;99.90;;;;;;5011847;28;20402;-64
2022/10/13 13:17:52;;;;;;;;;;;14.30;99.90;;;;;;5015247;28;19929;-64
2022/10/13 13:20:28;;;;;;;;;;;14.20;99.90;;;;;;5008583;28;19929;-65
2022/10/13 13:22:55;;;;;;;;;;;14.30;99.90;;;;;;5013022;28;20307;-65
2022/10/13 13:25:22;;;;;;;;;;;14.20;99.90;;;;;;5013927;28;20344;-65
2022/10/13 13:27:49;;;;;;;;;;;14.30;99.90;;;;;;5013172;28;19937;-66
2022/10/13 13:30:18;;;;;;;;;;;14.30;99.90;;;;;;5016829;28;19928;-66
2022/10/13 13:32:45;;;;;;;;;;;14.30;99.90;;;;;;5018629;28;19929;-66
2022/10/13 13:35:12;;;;;;;;;;;14.20;99.90;;;;;;5011443;28;20340;-66
2022/10/13 13:37:40;;;;;;;;;;;14.10;99.90;;;;;;5016588;28;20598;-65
2022/10/13 13:40:13;;;;;;;;;;;14.10;99.90;;;;;;5009508;28;20032;-66
2022/10/13 13:42:40;;;;;;;;;;;14.20;99.90;;;;;;5007072;28;20363;-67
2022/10/13 13:45:11;;;;;;;;;;;14.30;99.90;;;;;;5008084;28;20287;-66
2022/10/13 13:47:37;;;;;;;;;;;14.30;99.90;;;;;;5013075;28;20271;-66
2022/10/13 13:50:09;;;;;;;;;;;14.30;99.90;;;;;;5009338;28;19972;-65
2022/10/13 13:52:40;;;;;;;;;;;14.40;99.90;;;;;;5021235;28;19986;-64
2022/10/13 13:55:08;;;;;;;;;;;14.20;99.90;;;;;;5018487;28;19979;-64
2022/10/13 13:57:35;;;;;;;;;;;14.10;99.90;;;;;;5014343;28;20053;-65
2022/10/13 14:00:03;;;;;;;;;;;14.00;99.90;;;;;;5025659;28;19936;-65
2022/10/13 14:02:37;;;;;;;;;;;14.00;99.90;;;;;;5019848;28;19935;-65
2022/10/13 14:05:04;;;;;;;;;;;14.00;99.90;;;;;;5019537;28;19945;-64
2022/10/13 14:07:31;;;;;;;;;;;13.90;99.90;;;;;;5015235;28;19933;-65
2022/10/13 14:09:58;;;;;;;;;;;13.80;99.90;;;;;;5026002;28;20020;-65
2022/10/13 14:12:31;;;;;;;;;;;13.70;99.90;;;;;;5024831;28;20016;-64
2022/10/13 14:14:58;;;;;;;;;;;13.70;99.90;;;;;;5021215;28;19960;-66
2022/10/13 14:17:26;;;;;;;;;;;13.60;99.90;;;;;;5017326;28;20008;-66
2022/10/13 14:19:53;;;;;;;;;;;13.50;99.90;;;;;;5022690;28;19937;-65
2022/10/13 14:22:20;;;;;;;;;;;13.50;99.90;;;;;;5018600;28;19935;-66
2022/10/13 14:24:47;;;;;;;;;;;13.40;99.90;;;;;;5014558;28;20019;-66
2022/10/13 14:27:14;;;;;;;;;;;13.30;99.90;;;;;;5015183;28;19933;-65
2022/10/13 14:29:41;;;;;;;;;;;13.30;99.90;;;;;;5016581;28;20422;-65
2022/10/13 14:32:08;;;;;;;;;;;13.20;99.90;;;;;;5012579;28;19960;-66
2022/10/13 14:34:34;;;;;;;;;;;13.20;99.90;;;;;;5019066;28;19964;-66
2022/10/13 14:37:01;;;;;;;;;;;13.10;99.90;;;;;;5010098;28;19925;-65
2022/10/13 14:39:28;;;;;;;;;;;13.00;99.90;;;;;;5013346;28;19939;-70